Terminal Aerodrome Forecast
Issued by NWS Greer, SC

Home | Current Version | Previous Version | Text Only | Print | Product List | Glossary On
Versions: 1 2 3 4 5 6 7 8 9 10 11 12 13 14 15 16 17 18 19 20 21 22 23 24 25
000
FTUS42 KGSP 282358 CCA
TAFCLT
TAF COR
KCLT 282358Z 2900/2924 36009KT P6SM SCT050 BKN100
      TEMPO 2900/2902 VRB10G20KT 2SM TSRA OVC035CB
     FM290200 25005KT P6SM SCT100 BKN250
     FM291500 28006KT P6SM SCT060 SCT120 PROB30 2920/2924 4SM TSRA
      OVC050CB=

USA.gov is the U.S. government's official web portal to all federal, state and local government web resources and services.